createdAt,value
2023-03-16T00:12:25.660Z,1.02
2023-03-16T00:27:26.211Z,0.94
2023-03-16T00:42:25.736Z,0.43
2023-03-16T00:57:25.522Z,0.22
2023-03-16T01:12:26.467Z,0.12
2023-03-16T01:27:26.261Z,0.33
2023-03-16T01:42:25.726Z,0.32
2023-03-16T01:57:26.536Z,0.13
2023-03-16T02:12:26.055Z,0.12
2023-03-16T02:42:26.137Z,0
2023-03-16T03:27:25.509Z,0.03
2023-03-16T03:42:25.408Z,0
2023-03-16T03:57:25.697Z,0
2023-03-16T04:12:25.471Z,0
2023-03-16T04:27:26.249Z,0.19
2023-03-16T04:42:26.232Z,0.05
2023-03-16T04:57:26.022Z,0.36
2023-03-16T05:27:26.016Z,3.17
2023-03-16T05:42:25.761Z,9.91
2023-03-16T05:57:25.723Z,7.39
2023-03-16T06:12:25.794Z,0.78
2023-03-16T06:42:25.485Z,2.28
2023-03-16T06:57:26.280Z,0.9
2023-03-16T07:12:30.787Z,1.26
2023-03-16T07:27:28.427Z,2.98
2023-03-16T07:42:26.264Z,2.87
2023-03-16T08:12:26.521Z,0.39
2023-03-16T08:27:25.669Z,0.66
2023-03-16T08:57:25.913Z,3.69
2023-03-16T09:27:25.648Z,1.85
2023-03-16T09:42:25.851Z,5.31
2023-03-16T09:57:25.969Z,0.66
2023-03-16T10:12:25.437Z,3
2023-03-16T10:27:25.667Z,0.74
2023-03-16T10:42:25.818Z,0.01
2023-03-16T10:57:25.576Z,0
2023-03-16T11:12:25.737Z,0
2023-03-16T11:27:25.496Z,0
2023-03-16T11:57:25.903Z,0
2023-03-16T12:12:26.298Z,0
2023-03-16T12:27:26.193Z,0
2023-03-16T13:12:26.146Z,0
2023-03-16T13:27:26.146Z,0.03
2023-03-16T14:12:25.882Z,0.02
2023-03-16T14:27:25.261Z,0.05
2023-03-16T14:42:25.548Z,0.01
2023-03-16T14:57:26.047Z,0.02
2023-03-16T15:12:25.426Z,0.67
2023-03-16T15:42:26.081Z,0.16
2023-03-16T15:57:25.574Z,0.25
2023-03-16T16:42:25.564Z,1.13
2023-03-16T16:57:25.632Z,4.1
2023-03-16T17:12:25.993Z,1.42
2023-03-16T17:27:25.694Z,8.58
2023-03-16T17:42:25.723Z,21.37
2023-03-16T17:57:26.069Z,11.03
2023-03-16T18:12:25.924Z,16.14
2023-03-16T18:27:25.480Z,12.68
2023-03-16T18:42:25.596Z,12.26
2023-03-16T18:57:25.910Z,8.42
2023-03-16T19:12:25.697Z,11.15
2023-03-16T19:42:25.813Z,3.7
2023-03-16T19:57:25.972Z,5.84
2023-03-16T20:12:25.500Z,7.09
2023-03-16T20:42:25.936Z,14.77
2023-03-16T20:57:25.620Z,10.66
2023-03-16T21:27:25.480Z,1.21
2023-03-16T21:42:25.851Z,3.71
2023-03-16T21:57:25.998Z,9.07
2023-03-16T22:12:26.131Z,7.36
2023-03-16T22:42:25.637Z,8.6
2023-03-16T22:57:25.538Z,9.56
2023-03-16T23:12:25.730Z,1.68
2023-03-16T23:27:25.570Z,5.35
2023-03-16T23:42:25.946Z,4.3
2023-03-16T23:57:26.194Z,2.07
